Time;durP1;ratioP1;P1;durP2;ratioP2;P2;SDS_P1;SDS_P2;PMS_P1;PMS_P2;Temp;Humidity;BMP_temperature;BMP_pressure;BME280_temperature;BME280_humidity;BME280_pressure;Samples;Min_cycle;Max_cycle;Signal;HPM_P1;HPM_P2
2021/07/05 00:00:25;;;;;;;9.82;7.32;;;20.50;63.90;;;20.64;48.91;94435.47;5075094;28;20325;-85
2021/07/05 00:02:52;;;;;;;8.48;7.25;;;20.50;64.30;;;20.65;48.89;94438.94;5054648;28;20222;-85
2021/07/05 00:05:20;;;;;;;8.00;6.72;;;20.60;64.50;;;20.69;49.34;94447.19;5039319;28;20221;-85
2021/07/05 00:07:47;;;;;;;7.03;6.32;;;20.60;64.60;;;20.69;49.41;94450.69;5019124;28;20212;-86
2021/07/05 00:10:19;;;;;;;6.78;6.07;;;20.60;64.70;;;20.70;49.07;94454.13;4905341;29;20704;-85
2021/07/05 00:12:47;;;;;;;6.80;6.10;;;20.60;64.80;;;20.69;49.72;94457.84;4657625;29;20227;-86
2021/07/05 00:18:08;;;;;;;7.60;6.90;;;20.60;65.40;;;20.61;50.11;94459.19;5133970;27;20379;-85
2021/07/05 00:20:43;;;;;;;7.78;6.97;;;20.60;65.10;;;20.59;50.03;94451.47;5090733;28;20232;-86
2021/07/05 00:23:12;;;;;;;7.40;6.47;;;20.60;65.30;;;20.56;49.59;94467.19;5100137;28;20262;-86
2021/07/05 00:25:38;;;;;;;9.77;7.07;;;20.60;65.20;;;20.52;50.48;94458.13;5034166;28;20223;-86
2021/07/05 00:28:07;;;;;;;8.10;7.22;;;20.60;65.40;;;20.48;51.17;94461.31;5021497;28;20208;-85
2021/07/05 00:30:35;;;;;;;6.75;6.07;;;20.50;65.90;;;20.44;50.48;94449.59;4984231;28;20213;-85
2021/07/05 00:33:01;;;;;;;7.88;6.50;;;20.50;65.80;;;20.42;50.47;94451.72;4930583;28;20311;-86
2021/07/05 00:35:29;;;;;;;6.22;5.63;;;20.50;65.90;;;20.40;50.45;94453.06;4793531;29;20296;-84
2021/07/05 00:40:05;;;;;;;6.88;6.22;;;20.40;65.80;;;20.30;51.69;94451.97;5137821;27;21209;-85
2021/07/05 00:42:33;;;;;;;7.03;6.22;;;20.40;66.50;;;20.29;52.14;94450.38;5103842;28;20197;-85
2021/07/05 00:45:00;;;;;;;6.57;5.55;;;20.40;66.60;;;20.26;51.42;94450.09;5095386;28;20240;-85
2021/07/05 00:47:27;;;;;;;6.63;5.93;;;20.30;66.40;;;20.24;52.20;94446.91;5079363;28;20212;-85
2021/07/05 00:49:53;;;;;;;6.97;6.28;;;20.30;66.80;;;20.21;52.50;94450.88;5085952;28;20225;-85
2021/07/05 00:52:20;;;;;;;5.97;5.38;;;20.30;67.10;;;20.22;52.16;94457.81;5071005;28;20215;-86
2021/07/05 00:54:47;;;;;;;6.22;5.63;;;20.30;67.20;;;20.21;52.70;94471.41;4969845;28;20222;-84
2021/07/05 00:57:20;;;;;;;6.70;5.70;;;20.30;67.30;;;20.19;53.06;94474.34;4793081;29;20218;-86
2021/07/05 01:02:17;;;;;;;6.28;5.18;;;20.20;67.50;;;20.19;53.44;94469.00;5143153;27;20412;-85
2021/07/05 01:04:44;;;;;;;6.57;5.38;;;20.20;67.80;;;20.17;53.73;94468.47;5082092;28;20223;-86
2021/07/05 01:07:11;;;;;;;6.70;5.25;;;20.20;67.90;;;20.18;53.52;94471.91;5058083;28;20256;-86
2021/07/05 01:09:40;;;;;;;5.93;5.32;;;20.20;67.90;;;20.19;52.66;94476.19;5029898;28;20539;-86
2021/07/05 01:12:08;;;;;;;6.72;5.30;;;20.20;67.80;;;20.15;52.57;94452.75;5059980;28;20552;-85
2021/07/05 01:14:36;;;;;;;5.07;4.57;;;20.20;67.90;;;20.18;53.10;94466.59;4950944;28;20809;-86
2021/07/05 01:17:10;;;;;;;5.97;4.68;;;20.20;68.00;;;20.17;53.17;94473.00;4918944;29;20236;-86
2021/07/05 01:19:38;;;;;;;5.40;4.85;;;20.20;68.10;;;20.13;53.19;94465.53;4814116;29;20238;-86
2021/07/05 01:24:10;;;;;;;5.05;4.55;;;20.20;68.20;;;20.13;52.96;94475.38;5145586;27;21006;-85
2021/07/05 01:26:36;;;;;;;7.00;4.90;;;20.10;67.80;;;20.14;53.10;94479.63;5097088;28;20214;-85
2021/07/05 01:29:04;;;;;;;5.20;4.70;;;20.10;68.00;;;20.13;53.38;94475.38;5103408;28;20665;-85
2021/07/05 01:31:30;;;;;;;6.13;5.20;;;20.10;68.20;;;20.12;53.69;94482.56;5082683;28;20199;-85
2021/07/05 01:33:57;;;;;;;7.03;4.90;;;20.10;68.30;;;20.12;53.56;94481.78;5013356;28;20232;-86
2021/07/05 01:36:23;;;;;;;4.97;4.47;;;20.10;68.40;;;20.11;53.74;94493.47;5045757;28;20266;-85
2021/07/05 01:38:51;;;;;;;6.82;4.50;;;20.10;68.50;;;20.10;54.42;94489.22;5038204;28;20686;-85
2021/07/05 01:41:19;;;;;;;5.38;4.88;;;20.10;68.70;;;20.10;54.39;94489.22;4942632;28;20561;-85
2021/07/05 01:45:52;;;;;;;5.40;4.70;;;20.10;68.90;;;20.06;53.95;94485.47;5131140;27;20640;-86
2021/07/05 01:48:19;;;;;;;5.15;4.53;;;20.10;68.70;;;20.05;53.70;94475.91;5085466;28;20548;-85
2021/07/05 01:50:45;;;;;;;4.65;4.10;;;20.10;68.50;;;20.04;53.62;94479.59;5090264;28;20256;-85
2021/07/05 01:53:13;;;;;;;5.22;4.38;;;20.10;68.60;;;20.03;53.65;94470.84;5083946;28;20206;-84
2021/07/05 01:55:40;;;;;;;4.95;4.05;;;20.00;68.60;;;20.03;53.84;94475.34;5021169;28;20216;-85
2021/07/05 01:58:08;;;;;;;4.97;3.75;;;20.00;68.90;;;19.98;54.08;94460.97;4992033;28;20305;-85
2021/07/05 02:00:37;;;;;;;3.97;3.65;;;20.00;68.80;;;19.96;53.84;94465.75;4888955;29;20230;-86
2021/07/05 02:03:04;;;;;;;3.97;3.63;;;20.00;69.00;;;19.97;53.65;94466.56;4754810;29;20284;-85
2021/07/05 02:07:33;;;;;;;4.65;3.90;;;20.00;69.00;;;19.88;54.49;94463.59;5151023;27;20568;-85
2021/07/05 02:09:59;;;;;;;3.95;3.55;;;20.00;69.00;;;19.87;54.07;94466.50;5096445;28;20217;-85
2021/07/05 02:12:26;;;;;;;5.28;3.67;;;19.90;68.90;;;19.82;54.28;94468.06;5055048;28;20285;-85
2021/07/05 02:14:52;;;;;;;4.00;3.38;;;19.90;69.00;;;19.79;54.38;94467.78;5010336;28;20692;-85
2021/07/05 02:17:21;;;;;;;4.03;3.50;;;19.90;69.20;;;19.73;54.02;94460.84;4984458;28;20212;-86
2021/07/05 02:19:47;;;;;;;5.03;3.78;;;19.80;68.90;;;19.71;53.88;94469.06;4961647;28;20639;-86
2021/07/05 02:22:13;;;;;;;3.65;3.35;;;19.80;68.90;;;19.62;55.08;94466.13;4879601;29;20205;-86
2021/07/05 02:24:40;;;;;;;3.42;3.13;;;19.70;69.20;;;19.58;54.70;94466.91;4852931;29;20268;-86
2021/07/05 02:29:29;;;;;;;3.42;3.13;;;19.70;69.10;;;19.46;55.45;94477.78;5131497;27;20667;-86
2021/07/05 02:31:55;;;;;;;4.30;3.45;;;19.60;69.60;;;19.41;56.44;94494.50;5091991;28;20208;-86
2021/07/05 02:34:22;;;;;;;3.20;2.90;;;19.60;69.90;;;19.35;56.51;94483.00;5088770;28;20248;-85
2021/07/05 02:36:50;;;;;;;4.53;3.60;;;19.50;70.20;;;19.31;57.15;94491.75;5068815;28;20211;-85
2021/07/05 02:39:18;;;;;;;3.90;3.15;;;19.50;70.50;;;19.28;56.24;94487.75;5013111;28;20247;-86
2021/07/05 02:41:45;;;;;;;5.40;3.75;;;19.40;70.40;;;19.25;56.36;94495.44;4948393;28;20833;-85
2021/07/05 02:44:12;;;;;;;3.70;3.40;;;19.40;70.40;;;19.21;56.42;94495.16;4948089;28;20226;-86
2021/07/05 02:46:38;;;;;;;3.65;3.30;;;19.30;70.40;;;19.19;56.20;94500.75;4877033;28;20248;-85
2021/07/05 02:51:40;;;;;;;3.45;2.80;;;19.30;70.50;;;19.18;56.12;94498.34;5149335;27;20419;-85
2021/07/05 02:54:07;;;;;;;4.20;3.60;;;19.30;70.70;;;19.17;56.25;94491.41;5106066;27;20736;-85
2021/07/05 02:56:33;;;;;;;3.92;3.40;;;19.20;70.80;;;19.14;56.84;94495.41;5105872;28;20201;-85
2021/07/05 02:59:00;;;;;;;3.50;3.20;;;19.20;70.90;;;19.12;56.49;94494.84;5038388;28;20220;-83
2021/07/05 03:01:26;;;;;;;3.50;3.20;;;19.20;70.90;;;19.12;57.24;94512.66;4962592;28;20207;-84
2021/07/05 03:03:54;;;;;;;3.55;3.13;;;19.20;71.10;;;19.13;56.65;94514.25;4967173;28;20229;-84
2021/07/05 03:06:22;;;;;;;3.53;3.20;;;19.20;71.00;;;19.12;56.59;94510.78;4959912;28;20351;-83
2021/07/05 03:08:48;;;;;;;4.03;3.10;;;19.30;71.30;;;19.13;57.06;94516.94;4830526;29;20214;-84
2021/07/05 03:13:36;;;;;;;7.72;3.05;;;19.20;71.30;;;19.15;56.59;94510.28;5149541;27;20383;-85
2021/07/05 03:16:03;;;;;;;4.03;2.50;;;19.20;71.10;;;19.17;56.12;94502.84;5095292;28;20232;-85
2021/07/05 03:18:29;;;;;;;2.67;2.47;;;19.20;71.00;;;19.20;56.75;94512.97;5066278;28;20219;-85
2021/07/05 03:20:56;;;;;;;3.45;2.72;;;19.20;71.00;;;19.24;56.48;94520.44;5065532;28;20198;-84
2021/07/05 03:23:25;;;;;;;3.35;2.30;;;19.30;71.30;;;19.27;55.88;94520.72;5025989;28;20260;-86
2021/07/05 03:25:53;;;;;;;4.03;2.15;;;19.20;71.10;;;19.29;56.53;94523.13;4962815;28;20241;-84
2021/07/05 03:28:20;;;;;;;2.60;2.38;;;19.20;71.00;;;19.32;56.87;94522.63;4982204;28;20282;-85
2021/07/05 03:30:50;;;;;;;2.38;2.17;;;19.30;71.40;;;19.33;56.42;94524.22;4923336;28;20246;-85
2021/07/05 03:35:32;;;;;;;2.33;2.13;;;19.30;71.40;;;19.34;56.49;94523.97;5133293;27;20664;-85
2021/07/05 03:38:00;;;;;;;2.47;1.90;;;19.30;71.40;;;19.36;56.80;94524.50;5105199;28;20208;-86
2021/07/05 03:40:34;;;;;;;2.22;1.92;;;19.40;71.30;;;19.40;56.09;94524.78;5111678;28;20263;-85
2021/07/05 03:43:03;;;;;;;3.50;1.70;;;19.30;71.20;;;19.41;56.63;94523.75;5036916;28;20205;-85
2021/07/05 03:45:34;;;;;;;2.00;1.80;;;19.30;71.10;;;19.43;56.16;94521.63;4999242;28;20217;-85
2021/07/05 03:48:01;;;;;;;1.90;1.80;;;19.40;71.20;;;19.46;56.03;94523.78;4954910;28;20230;-86
2021/07/05 03:50:30;;;;;;;2.00;1.90;;;19.40;71.10;;;19.46;56.44;94522.97;4911456;29;20243;-85
2021/07/05 03:52:57;;;;;;;2.15;1.80;;;19.40;71.10;;;19.47;56.64;94528.03;4837754;29;20303;-85
2021/07/05 03:58:13;;;;;;;2.13;1.92;;;19.50;71.20;;;19.48;56.62;94534.97;5149248;27;20539;-85
2021/07/05 04:00:40;;;;;;;2.25;1.90;;;19.50;71.20;;;19.48;56.51;94542.13;5105826;28;20217;-85
2021/07/05 04:03:08;;;;;;;2.22;2.03;;;19.40;71.20;;;19.49;56.36;94541.88;5110582;28;20225;-86
2021/07/05 04:05:35;;;;;;;2.08;1.90;;;19.40;71.10;;;19.48;56.79;94550.91;5092791;27;20245;-85
2021/07/05 04:08:03;;;;;;;2.30;2.10;;;19.50;72.20;;;19.51;55.97;94558.38;5074810;28;20706;-84
2021/07/05 04:10:32;;;;;;;1.85;1.73;;;19.50;71.10;;;19.52;56.45;94552.00;5024907;28;20227;-85
2021/07/05 04:12:59;;;;;;;2.28;2.00;;;19.50;71.20;;;19.56;55.92;94554.16;4927549;28;20250;-85
2021/07/05 04:15:26;;;;;;;2.22;2.03;;;19.50;71.20;;;19.58;56.46;94560.81;4825542;29;20343;-85
2021/07/05 04:20:39;;;;;;;1.88;1.67;;;19.50;71.20;;;19.62;56.05;94553.13;5124635;27;21199;-85
2021/07/05 04:23:05;;;;;;;2.42;2.03;;;19.50;71.20;;;19.65;56.06;94557.91;5085658;28;20222;-86
2021/07/05 04:25:32;;;;;;;2.10;1.90;;;19.50;71.10;;;19.65;55.96;94556.06;5096726;28;20308;-85
2021/07/05 04:27:59;;;;;;;2.20;2.00;;;19.50;71.20;;;19.69;56.33;94559.03;5046262;28;20196;-85
2021/07/05 04:30:30;;;;;;;2.20;2.00;;;19.60;71.30;;;19.72;55.67;94560.38;4975230;28;20657;-85
2021/07/05 04:32:58;;;;;;;2.55;1.90;;;19.60;71.30;;;19.73;55.92;94568.09;4932833;29;20218;-85
2021/07/05 04:35:27;;;;;;;1.90;1.80;;;19.60;71.40;;;19.74;55.92;94564.38;4822020;29;20261;-86
2021/07/05 04:37:55;;;;;;;2.08;1.90;;;19.70;71.50;;;19.76;55.89;94569.44;4668991;30;20219;-85
2021/07/05 04:42:51;;;;;;;2.70;2.33;;;19.70;71.40;;;19.78;56.47;94577.97;5149481;27;20414;-85
2021/07/05 04:45:21;;;;;;;1.95;1.75;;;19.70;71.50;;;19.77;56.57;94574.47;5117088;28;20269;-86
2021/07/05 04:47:49;;;;;;;2.25;2.10;;;19.70;71.50;;;19.79;56.74;94572.38;5077743;28;20230;-85
2021/07/05 04:50:16;;;;;;;2.10;1.90;;;19.70;71.50;;;19.78;56.42;94565.44;5051519;28;20252;-86
2021/07/05 04:52:44;;;;;;;1.95;1.85;;;19.70;71.60;;;19.80;56.45;94570.53;5031060;28;20191;-86
2021/07/05 04:55:14;;;;;;;2.15;1.95;;;19.70;71.50;;;19.81;56.08;94572.09;4990394;28;20225;-87
2021/07/05 04:57:42;;;;;;;2.40;1.98;;;19.70;71.50;;;19.85;56.12;94573.25;4956833;28;20294;-85
2021/07/05 05:00:16;;;;;;;2.28;2.08;;;19.70;71.50;;;19.86;56.77;94574.84;4896210;29;20231;-85
2021/07/05 05:02:50;;;;;;;2.85;1.92;;;19.80;71.70;;;19.86;57.14;94580.16;5150688;27;20390;-85
2021/07/05 05:05:17;;;;;;;2.30;1.85;;;19.80;71.70;;;19.87;56.77;94579.09;5099182;28;20222;-86
2021/07/05 05:07:43;;;;;;;2.10;2.00;;;19.80;71.80;;;19.89;56.76;94581.50;5080011;28;20226;-85
2021/07/05 05:10:14;;;;;;;2.17;1.98;;;19.80;71.70;;;19.90;56.51;94591.88;5111824;27;20236;-85
2021/07/05 05:12:41;;;;;;;1.70;1.60;;;19.80;71.70;;;19.93;56.47;94579.91;5092009;28;20448;-85
2021/07/05 05:15:09;;;;;;;1.85;1.75;;;19.80;71.80;;;19.95;56.53;94577.81;5023217;28;20300;-85
2021/07/05 05:17:36;;;;;;;2.00;1.90;;;19.80;71.90;;;19.96;56.93;94572.22;4960559;28;20645;-87
2021/07/05 05:20:06;;;;;;;1.92;1.80;;;19.80;71.80;;;20.03;56.27;94581.84;4823135;29;20233;-85
2021/07/05 05:24:30;;;;;;;1.80;1.70;;;19.90;71.90;;;20.04;56.64;94586.88;5142275;27;20630;-84
2021/07/05 05:26:57;;;;;;;1.77;1.67;;;19.90;71.90;;;20.09;56.89;94586.13;5086659;28;20206;-85
2021/07/05 05:29:23;;;;;;;2.38;1.90;;;20.00;72.00;;;20.13;56.63;94596.00;5108043;28;20312;-86
2021/07/05 05:31:50;;;;;;;1.65;1.55;;;20.00;72.00;;;20.18;56.37;94583.75;5096677;28;20202;-85
2021/07/05 05:34:17;;;;;;;1.70;1.60;;;20.00;72.00;;;20.17;56.61;94593.63;5044555;28;20307;-87
2021/07/05 05:36:44;;;;;;;1.77;1.67;;;20.10;72.10;;;20.22;56.35;94582.19;5037190;28;20274;-85
2021/07/05 05:39:10;;;;;;;1.77;1.60;;;20.10;72.00;;;20.24;56.56;94583.53;5030990;28;20317;-86
2021/07/05 05:41:36;;;;;;;1.90;1.80;;;20.10;72.00;;;20.30;56.64;94595.00;4899200;28;20233;-86
2021/07/05 05:46:40;;;;;;;1.77;1.65;;;20.20;72.10;;;20.37;56.55;94592.88;5150383;27;20400;-86
2021/07/05 05:49:08;;;;;;;1.67;1.58;;;20.20;72.00;;;20.42;56.52;94592.09;5112122;27;20592;-85
2021/07/05 05:51:35;;;;;;;1.80;1.70;;;20.20;72.00;;;20.43;56.55;94601.69;5108425;28;20362;-85
2021/07/05 05:54:09;;;;;;;2.13;1.70;;;20.20;72.00;;;20.45;56.26;94595.03;5058423;27;20224;-85
2021/07/05 05:56:38;;;;;;;1.70;1.60;;;20.30;72.00;;;20.46;56.45;94601.97;5097602;28;20197;-86
2021/07/05 05:59:08;;;;;;;1.80;1.70;;;20.40;72.10;;;20.50;56.73;94590.81;5071542;28;20257;-85
2021/07/05 06:01:42;;;;;;;1.75;1.65;;;20.40;72.00;;;20.53;56.42;94595.59;5001240;28;23078;-85
2021/07/05 06:04:09;;;;;;;1.95;1.85;;;20.40;73.00;;;20.54;56.36;94590.00;4832252;29;20272;-85
2021/07/05 06:08:36;;;;;;;1.60;1.50;;;20.40;72.10;;;20.61;56.63;94595.09;5149063;27;20653;-85
2021/07/05 06:11:03;;;;;;;2.00;1.80;;;20.40;72.00;;;20.65;56.91;94590.81;5093836;28;20229;-85
2021/07/05 06:13:29;;;;;;;2.10;1.90;;;20.50;72.10;;;20.73;56.68;94593.00;5089474;28;20284;-85
2021/07/05 06:15:56;;;;;;;1.80;1.70;;;20.50;72.10;;;20.77;56.64;94594.06;5091964;28;20659;-84
2021/07/05 06:18:22;;;;;;;1.63;1.52;;;20.60;72.10;;;20.84;56.55;94588.50;5059857;28;20544;-87
2021/07/05 06:20:49;;;;;;;2.17;1.98;;;20.60;72.10;;;20.93;56.43;94594.09;4970555;28;20223;-86
2021/07/05 06:23:24;;;;;;;1.88;1.77;;;20.60;72.10;;;21.01;56.21;94598.94;4912189;28;20315;-85
2021/07/05 06:25:51;;;;;;;2.00;1.80;;;20.70;72.10;;;21.08;56.18;94606.66;4673110;29;20250;-85
2021/07/05 06:30:18;;;;;;;1.95;1.80;;;20.80;72.00;;;21.11;55.61;94588.25;5134134;27;21162;-85
2021/07/05 06:32:45;;;;;;;1.90;1.80;;;20.90;71.80;;;21.14;56.24;94591.47;5103001;28;20212;-86
2021/07/05 06:35:13;;;;;;;1.90;1.80;;;20.90;71.70;;;21.19;55.59;94596.78;5109128;27;20316;-85
2021/07/05 06:37:40;;;;;;;2.60;1.80;;;20.90;71.70;;;21.26;56.05;94590.16;5046565;28;20215;-86
2021/07/05 06:40:08;;;;;;;2.00;1.90;;;21.00;71.80;;;21.40;55.54;94597.59;5041514;28;20238;-85
2021/07/05 06:42:36;;;;;;;2.10;1.90;;;21.10;71.90;;;21.54;55.72;94605.84;4985426;28;20202;-86
2021/07/05 06:45:05;;;;;;;1.80;1.70;;;21.20;72.00;;;21.68;55.05;94606.94;4904017;29;20328;-85
2021/07/05 06:47:32;;;;;;;2.05;1.90;;;21.20;71.70;;;21.78;55.02;94606.13;4690340;30;20222;-86
2021/07/05 06:52:32;;;;;;;2.30;2.10;;;21.30;71.50;;;21.82;54.40;94617.06;5137960;27;20384;-86
2021/07/05 06:55:01;;;;;;;2.28;2.08;;;21.50;71.00;;;21.75;54.45;94615.47;5072410;28;20593;-86
2021/07/05 06:57:31;;;;;;;2.00;1.90;;;21.50;70.70;;;21.66;54.42;94617.06;5048734;28;20660;-86
2021/07/05 07:00:05;;;;;;;2.40;2.20;;;21.50;70.50;;;21.59;54.46;94617.38;5012944;28;20237;-86
2021/07/05 07:02:33;;;;;;;2.35;2.20;;;21.50;70.50;;;21.59;54.73;94622.69;4959469;28;20215;-85
2021/07/05 07:05:01;;;;;;;2.42;2.22;;;21.50;70.50;;;21.58;54.64;94621.09;4959139;28;20571;-85
2021/07/05 07:07:27;;;;;;;2.55;2.35;;;21.50;70.50;;;21.57;54.40;94630.16;4927414;28;20222;-85
2021/07/05 07:09:53;;;;;;;2.50;2.30;;;21.50;70.50;;;21.52;54.47;94624.81;4733258;29;20354;-84
2021/07/05 07:14:25;;;;;;;2.30;2.10;;;21.50;70.30;;;21.43;54.78;94623.75;5141899;27;20947;-86
2021/07/05 07:16:54;;;;;;;2.28;2.17;;;21.40;70.20;;;21.40;54.20;94622.41;5124278;28;20240;-86
2021/07/05 07:19:21;;;;;;;2.45;2.25;;;21.50;70.30;;;21.40;54.12;94622.41;5114508;27;20296;-86
2021/07/05 07:21:50;;;;;;;2.53;2.33;;;21.40;70.20;;;21.38;54.63;94629.88;5079979;28;20205;-85
2021/07/05 07:24:19;;;;;;;2.60;2.40;;;21.30;70.10;;;21.36;54.41;94625.88;4986310;28;20233;-85
2021/07/05 07:26:46;;;;;;;2.67;2.47;;;21.30;70.20;;;21.37;54.64;94620.28;4937531;28;20218;-87
2021/07/05 07:29:14;;;;;;;2.50;2.30;;;21.30;70.30;;;21.41;54.22;94617.84;4895637;29;20599;-85
2021/07/05 07:31:41;;;;;;;3.00;2.67;;;21.30;70.40;;;21.47;54.38;94611.47;4721216;30;20216;-85
2021/07/05 07:36:39;;;;;;;2.50;2.30;;;21.30;70.40;;;21.70;54.68;94625.34;5145298;27;20399;-85
2021/07/05 07:39:09;;;;;;;2.50;2.30;;;21.40;70.90;;;21.86;54.63;94613.59;5124361;28;20706;-85
2021/07/05 07:41:35;;;;;;;2.70;2.50;;;21.40;71.00;;;21.99;54.12;94619.44;5084831;28;20215;-87
2021/07/05 07:44:04;;;;;;;3.00;2.70;;;21.50;70.60;;;22.09;54.05;94616.72;5084401;28;20738;-85
2021/07/05 07:46:31;;;;;;;2.83;2.63;;;21.60;70.60;;;22.19;53.92;94615.88;5041661;28;20198;-85
2021/07/05 07:48:58;;;;;;;3.22;2.72;;;21.80;70.60;;;22.28;53.79;94614.25;5044206;28;20693;-84
2021/07/05 07:51:25;;;;;;;2.90;2.70;;;21.80;70.50;;;22.36;52.94;94618.22;4972314;28;20218;-86
2021/07/05 07:53:52;;;;;;;2.90;2.63;;;21.90;70.10;;;22.39;52.96;94618.50;4730054;29;20241;-85
2021/07/05 07:57:34;;;;;;;2.80;2.60;;;22.00;70.00;;;22.50;53.33;94611.25;5151325;27;20948;-86
2021/07/05 08:00:01;;;;;;;2.80;2.60;;;22.10;70.00;;;22.58;52.27;94619.78;5091865;28;20226;-85
2021/07/05 08:02:38;;;;;;;4.07;2.92;;;22.20;69.70;;;22.64;52.32;94610.66;5094206;28;20279;-85
2021/07/05 08:05:07;;;;;;;3.20;3.00;;;22.30;69.50;;;22.74;52.54;94615.16;5067898;28;20214;-86
2021/07/05 08:07:37;;;;;;;3.13;2.60;;;22.30;69.60;;;22.85;52.51;94612.16;5020582;28;20203;-86
2021/07/05 08:10:06;;;;;;;3.70;2.75;;;22.40;69.70;;;22.96;51.99;94617.41;4970133;28;20225;-86
2021/07/05 08:12:33;;;;;;;3.47;2.88;;;22.50;69.30;;;23.03;51.43;94628.59;4899233;29;20245;-86
2021/07/05 08:15:00;;;;;;;2.83;2.63;;;22.60;68.90;;;23.07;51.35;94629.66;4246469;29;20336;-86
2021/07/05 08:19:15;;;;;;;3.00;2.60;;;22.70;68.70;;;23.16;51.62;94621.84;5144940;27;20640;-86
2021/07/05 08:21:42;;;;;;;3.08;2.88;;;22.70;68.80;;;23.30;51.29;94619.34;5118227;28;20198;-85
2021/07/05 08:24:09;;;;;;;2.53;2.33;;;22.80;68.80;;;23.48;51.52;94621.34;5089638;28;20579;-83
2021/07/05 08:26:35;;;;;;;2.53;2.33;;;22.90;68.90;;;23.65;50.97;94626.28;5119305;28;20208;-84
2021/07/05 08:29:03;;;;;;;2.75;2.42;;;23.00;68.80;;;23.85;51.21;94613.00;5092679;28;20682;-86
2021/07/05 08:31:30;;;;;;;2.80;2.60;;;23.10;69.00;;;24.02;50.63;94616.06;4978871;28;20215;-86
2021/07/05 08:33:59;;;;;;;2.45;2.25;;;23.30;68.60;;;24.16;50.38;94626.09;4969995;28;20284;-86
2021/07/05 08:36:26;;;;;;;2.85;2.55;;;23.40;68.20;;;24.25;49.63;94624.38;4898612;28;20461;-86
2021/07/05 08:41:00;;;;;;;2.50;2.30;;;23.60;67.80;;;24.40;49.88;94610.81;5151222;27;20639;-85
2021/07/05 08:43:28;;;;;;;2.55;2.28;;;23.70;67.70;;;24.50;49.40;94607.22;5107058;27;20205;-85
2021/07/05 08:46:01;;;;;;;2.53;2.33;;;23.80;67.60;;;24.59;49.52;94604.69;5109308;28;20361;-85
2021/07/05 08:48:41;;;;;;;2.83;2.53;;;23.90;67.50;;;24.63;49.04;94608.38;5059828;28;20583;-85
2021/07/05 08:51:13;;;;;;;2.50;2.30;;;24.00;66.90;;;24.67;48.56;94620.16;4979198;28;20205;-86
2021/07/05 08:53:41;;;;;;;2.80;2.60;;;24.10;66.70;;;24.74;48.98;94627.84;4881430;29;20244;-86
2021/07/05 08:56:09;;;;;;;2.50;2.30;;;24.10;66.90;;;24.76;47.89;94629.16;4897695;29;20308;-86
2021/07/05 08:58:36;;;;;;;2.50;2.30;;;24.20;66.80;;;24.81;48.72;94617.56;4726282;29;24641;-85
2021/07/05 09:03:08;;;;;;;2.30;2.10;;;24.30;66.90;;;24.94;48.46;94624.88;5151418;27;20630;-86
2021/07/05 09:05:35;;;;;;;3.97;2.20;;;24.40;66.90;;;25.05;47.65;94628.22;5129466;27;20697;-84
2021/07/05 09:08:11;;;;;;;2.65;2.35;;;24.50;66.30;;;25.12;47.11;94633.25;5105988;28;20607;-84
2021/07/05 09:10:48;;;;;;;2.13;1.95;;;24.50;65.90;;;25.15;46.77;94626.50;4979105;28;20770;-83
2021/07/05 09:13:27;;;;;;;2.10;2.00;;;24.60;65.30;;;25.20;46.46;94632.56;5018981;28;20302;-84
2021/07/05 09:16:00;;;;;;;2.22;2.08;;;24.70;65.20;;;25.20;45.87;94631.78;4910010;29;20725;-84
2021/07/05 09:18:32;;;;;;;2.25;2.10;;;24.70;64.80;;;25.18;45.65;94625.88;4853596;29;20663;-84
2021/07/05 09:21:23;;;;;;;2.20;2.10;;;24.80;64.40;;;25.15;45.94;94610.38;5151237;27;20645;-85
2021/07/05 09:24:01;;;;;;;2.30;2.10;;;24.80;64.70;;;25.13;45.87;94607.97;5104057;28;20667;-85
2021/07/05 09:26:40;;;;;;;1.90;1.80;;;24.80;64.40;;;25.08;45.55;94613.41;5094393;27;20204;-84
2021/07/05 09:29:21;;;;;;;2.40;2.20;;;24.80;64.40;;;25.03;46.23;94606.25;5074615;28;20734;-84
2021/07/05 09:31:58;;;;;;;2.17;1.98;;;24.70;64.70;;;25.04;46.21;94607.06;5079843;28;20213;-85
2021/07/05 09:34:28;;;;;;;2.10;2.00;;;24.70;64.70;;;25.01;45.29;94602.25;4927321;28;20234;-85
2021/07/05 09:37:25;;;;;;;2.03;1.92;;;24.70;64.00;;;24.98;45.86;94603.63;4742296;30;20216;-85
2021/07/05 09:42:46;;;;;;;1.98;1.88;;;24.60;64.30;;;25.00;45.51;94614.88;5150907;27;20654;-87
2021/07/05 09:45:32;;;;;;;2.70;1.88;;;24.60;64.20;;;25.06;45.89;94615.59;5070508;28;20223;-88
2021/07/05 09:48:24;;;;;;;1.88;1.77;;;24.60;64.60;;;25.02;45.14;94611.91;5073939;28;20209;-86
2021/07/05 09:51:04;;;;;;;1.95;1.85;;;24.60;64.00;;;25.05;45.42;94617.50;5042553;28;20584;-87
2021/07/05 09:53:36;;;;;;;1.90;1.80;;;24.60;63.90;;;25.16;45.38;94612.78;5041123;28;20220;-87
2021/07/05 09:56:22;;;;;;;1.88;1.77;;;24.70;64.20;;;25.42;45.50;94613.19;4962337;28;20197;-87
2021/07/05 09:58:53;;;;;;;2.22;2.10;;;24.70;64.30;;;25.59;45.11;94606.47;4875028;28;20229;-88
2021/07/05 10:04:32;;;;;;;1.90;1.80;;;24.90;64.40;;;26.16;44.79;94605.50;5135029;27;20627;-87
2021/07/05 10:07:02;;;;;;;2.00;1.90;;;25.20;64.20;;;26.30;44.63;94608.19;5074022;28;20196;-88
2021/07/05 10:09:38;;;;;;;2.10;2.00;;;25.40;64.20;;;26.43;44.47;94607.38;5008683;28;20316;-88
2021/07/05 10:12:20;;;;;;;2.55;2.20;;;25.60;64.10;;;26.55;44.06;94616.81;5022753;28;20215;-89
2021/07/05 10:15:11;;;;;;;2.20;2.00;;;25.70;63.60;;;26.54;43.09;94613.34;5046734;28;20238;-87
2021/07/05 10:17:42;;;;;;;1.80;1.70;;;25.80;63.10;;;26.59;43.55;94613.25;4749223;29;20472;-86
2021/07/05 10:20:21;;;;;;;2.47;2.13;;;25.90;63.00;;;26.75;43.89;94615.66;4665740;30;20655;-88
2021/07/05 10:25:29;;;;;;;2.20;1.95;;;26.10;62.70;;;26.98;42.90;94611.09;5133771;27;20669;-89
2021/07/05 10:27:57;;;;;;;2.25;2.00;;;26.20;63.70;;;27.05;42.16;94624.94;5070276;28;20260;-89
2021/07/05 10:30:25;;;;;;;2.17;2.00;;;26.30;62.10;;;27.09;42.40;94617.06;5067834;28;20229;-87
2021/07/05 10:32:54;;;;;;;2.30;1.90;;;26.30;61.80;;;27.14;42.88;94627.69;5056345;28;20277;-88
2021/07/05 10:35:25;;;;;;;1.70;1.60;;;26.40;62.10;;;27.15;42.30;94613.16;5011851;28;20569;-89
2021/07/05 10:38:03;;;;;;;1.92;1.83;;;26.40;61.80;;;27.16;41.63;94612.06;4926737;28;20672;-88
2021/07/05 10:40:47;;;;;;;2.45;2.10;;;26.50;61.10;;;27.15;42.29;94611.25;4844602;29;20245;-87
2021/07/05 10:43:53;;;;;;;3.13;2.03;;;26.50;61.70;;;27.16;41.64;94609.34;5149563;27;20552;-87
2021/07/05 10:46:55;;;;;;;2.03;1.92;;;26.50;61.30;;;27.15;41.40;94616.63;5071238;28;20261;-88
2021/07/05 10:49:27;;;;;;;2.10;1.90;;;26.60;61.30;;;27.25;41.99;94618.28;5017478;28;20567;-88
2021/07/05 10:52:05;;;;;;;2.22;1.95;;;26.60;61.10;;;27.29;42.09;94621.16;5065087;28;20224;-87
2021/07/05 10:54:51;;;;;;;2.28;2.08;;;26.60;61.10;;;27.26;40.66;94616.41;4990216;28;20286;-88
2021/07/05 10:57:39;;;;;;;1.90;1.80;;;26.70;60.60;;;27.21;40.30;94611.94;4966603;28;20682;-87
2021/07/05 11:00:20;;;;;;;1.85;1.75;;;26.70;59.50;;;27.27;40.81;94617.97;4753518;29;20683;-87
2021/07/05 11:04:48;;;;;;;2.03;1.90;;;26.70;60.30;;;27.22;40.23;94610.84;5141695;27;20674;-89
2021/07/05 11:07:15;;;;;;;1.88;1.77;;;26.70;59.40;;;27.14;39.06;94606.16;5089296;27;20210;-88
2021/07/05 11:09:57;;;;;;;1.77;1.67;;;26.70;58.70;;;27.02;39.65;94597.84;5125674;27;20307;-89
2021/07/05 11:12:33;;;;;;;1.85;1.73;;;26.60;59.30;;;26.93;39.94;94590.47;5017384;28;20219;-89
2021/07/05 11:15:00;;;;;;;3.03;1.80;;;26.60;59.40;;;26.92;40.18;94601.56;5022353;28;20588;-87
2021/07/05 11:17:29;;;;;;;3.30;1.65;;;26.50;60.50;;;26.94;39.84;94602.84;4934719;28;20210;-90
2021/07/05 11:20:15;;;;;;;1.95;1.67;;;26.50;59.20;;;26.94;40.53;94608.22;4806165;29;20248;-87
2021/07/05 11:25:17;;;;;;;1.70;1.60;;;26.50;59.00;;;27.09;40.23;94603.59;5135234;27;20857;-86
2021/07/05 11:27:59;;;;;;;1.60;1.50;;;26.50;59.60;;;27.22;40.35;94602.75;5063701;28;20235;-86
2021/07/05 11:30:29;;;;;;;1.80;1.70;;;26.50;59.90;;;27.37;40.38;94600.78;5048262;28;20225;-87
2021/07/05 11:33:06;;;;;;;1.65;1.55;;;26.60;60.60;;;27.42;39.94;94596.09;5026447;28;20243;-87
2021/07/05 11:35:40;;;;;;;1.80;1.70;;;26.70;59.20;;;27.44;38.64;94593.09;4976203;28;20702;-85
2021/07/05 11:38:33;;;;;;;1.48;1.38;;;26.70;58.20;;;27.45;39.26;94594.69;4865161;29;20668;-87